Time;durP1;ratioP1;P1;durP2;ratioP2;P2;SDS_P1;SDS_P2;PMS_P1;PMS_P2;Temp;Humidity;BMP_temperature;BMP_pressure;BME280_temperature;BME280_humidity;BME280_pressure;Samples;Min_cycle;Max_cycle;Signal;HPM_P1;HPM_P2
2023/08/27 00:00:53;;;;;;;4.35;3.25;;;17.00;86.00;;;;;;5073642;28;20036;-74
2023/08/27 00:03:19;;;;;;;8.68;3.97;;;16.90;86.10;;;;;;5073613;28;20044;-75
2023/08/27 00:05:45;;;;;;;6.63;3.50;;;16.90;86.20;;;;;;5073056;28;20028;-75
2023/08/27 00:08:11;;;;;;;6.50;3.85;;;16.90;86.40;;;;;;5073468;28;20017;-73
2023/08/27 00:10:36;;;;;;;5.53;4.00;;;16.80;86.70;;;;;;5073445;28;20024;-76
2023/08/27 00:13:02;;;;;;;15.13;4.60;;;16.70;87.00;;;;;;5073275;28;20025;-73
2023/08/27 00:15:28;;;;;;;7.05;3.90;;;16.80;87.00;;;;;;5073237;28;20020;-74
2023/08/27 00:17:54;;;;;;;5.32;3.42;;;16.80;87.10;;;;;;5073115;28;20381;-74
2023/08/27 00:20:20;;;;;;;3.70;2.70;;;16.80;87.20;;;;;;5056792;28;20500;-74
2023/08/27 00:22:46;;;;;;;6.90;3.10;;;16.80;87.10;;;;;;5073207;28;20029;-75
2023/08/27 00:25:11;;;;;;;3.55;2.90;;;16.90;87.10;;;;;;5072997;28;20130;-74
2023/08/27 00:27:37;;;;;;;5.40;3.17;;;17.00;86.90;;;;;;5072809;28;20040;-74
2023/08/27 00:30:06;;;;;;;6.22;3.55;;;17.00;86.90;;;;;;5072913;28;20051;-74
2023/08/27 00:32:33;;;;;;;5.90;4.03;;;17.00;86.80;;;;;;5072856;28;20046;-74
2023/08/27 00:35:00;;;;;;;5.47;3.65;;;16.90;87.40;;;;;;5072949;28;20033;-74
2023/08/27 00:37:25;;;;;;;5.80;3.60;;;17.00;87.30;;;;;;5072917;28;20530;-74
2023/08/27 00:39:51;;;;;;;3.80;3.50;;;17.00;87.30;;;;;;5072869;28;20123;-74
2023/08/27 00:42:17;;;;;;;9.45;3.70;;;17.00;87.20;;;;;;5072944;28;20016;-73
2023/08/27 00:44:43;;;;;;;8.23;4.28;;;17.10;88.30;;;;;;5073558;28;20044;-73
2023/08/27 00:47:09;;;;;;;5.00;3.95;;;17.30;90.30;;;;;;5072653;28;20020;-75
2023/08/27 00:49:35;;;;;;;5.55;3.60;;;17.40;90.80;;;;;;5072336;28;20024;-75
2023/08/27 00:52:01;;;;;;;5.05;3.45;;;17.60;90.80;;;;;;5071904;28;20437;-75
2023/08/27 00:54:27;;;;;;;4.30;3.53;;;17.70;88.90;;;;;;5072227;28;20017;-76
2023/08/27 00:56:53;;;;;;;10.63;4.45;;;17.70;87.80;;;;;;5072518;28;20036;-76
2023/08/27 00:59:20;;;;;;;8.57;3.75;;;17.90;87.50;;;;;;5072291;28;20028;-75
2023/08/27 01:01:45;;;;;;;5.22;3.35;;;17.90;86.60;;;;;;5072400;28;20052;-75
2023/08/27 01:04:11;;;;;;;6.75;3.53;;;18.10;86.20;;;;;;5072031;28;20075;-75
2023/08/27 01:06:37;;;;;;;6.57;3.67;;;18.10;85.80;;;;;;5072529;28;20447;-75
2023/08/27 01:09:10;;;;;;;5.32;3.42;;;18.10;84.70;;;;;;5071942;28;20030;-76
2023/08/27 01:11:54;;;;;;;5.25;2.78;;;18.00;84.80;;;;;;5072326;28;20081;-77
2023/08/27 01:14:22;;;;;;;5.20;2.97;;;18.00;85.20;;;;;;5072197;28;20025;-77
2023/08/27 01:16:49;;;;;;;7.45;3.20;;;17.90;85.20;;;;;;5072279;28;20020;-78
2023/08/27 01:19:16;;;;;;;4.85;3.00;;;17.90;85.40;;;;;;5072327;28;20115;-76
2023/08/27 01:21:43;;;;;;;6.75;3.45;;;17.90;85.20;;;;;;5072196;28;20063;-77
2023/08/27 01:24:09;;;;;;;4.70;3.40;;;18.00;85.70;;;;;;5071789;28;20478;-75
2023/08/27 01:26:41;;;;;;;6.65;3.15;;;17.90;84.90;;;;;;5071990;28;20028;-74
2023/08/27 01:29:34;;;;;;;8.77;3.35;;;17.90;85.20;;;;;;5072159;28;20091;-75
2023/08/27 01:32:20;;;;;;;7.75;3.20;;;17.90;85.00;;;;;;5072151;28;20142;-76
2023/08/27 01:34:47;;;;;;;4.35;2.95;;;18.00;84.60;;;;;;5072032;28;20024;-76
2023/08/27 01:37:13;;;;;;;6.25;2.83;;;17.90;84.50;;;;;;5071999;28;20025;-76
2023/08/27 01:39:42;;;;;;;4.07;2.88;;;18.00;85.20;;;;;;5072018;28;20039;-76
2023/08/27 01:42:07;;;;;;;6.88;3.10;;;18.00;84.40;;;;;;5071536;28;20020;-78
2023/08/27 01:44:33;;;;;;;6.30;2.90;;;18.00;84.60;;;;;;5071857;28;20121;-76
2023/08/27 01:46:59;;;;;;;4.85;2.78;;;17.90;84.10;;;;;;5071977;28;20025;-76
2023/08/27 01:49:25;;;;;;;4.45;2.65;;;17.90;84.80;;;;;;5071849;28;20402;-75
2023/08/27 01:51:50;;;;;;;6.15;2.78;;;18.00;84.60;;;;;;5071604;28;20017;-76
2023/08/27 01:54:18;;;;;;;5.43;2.40;;;18.10;84.20;;;;;;5071795;28;20470;-75
2023/08/27 01:56:44;;;;;;;6.57;3.28;;;18.30;83.40;;;;;;5071569;28;20035;-74
2023/08/27 01:59:10;;;;;;;5.80;2.67;;;18.30;83.40;;;;;;5072846;28;20386;-74
2023/08/27 02:01:35;;;;;;;5.43;2.58;;;18.40;83.00;;;;;;5071898;28;20032;-75
2023/08/27 02:04:03;;;;;;;4.55;3.00;;;18.40;82.50;;;;;;5075478;28;20500;-74
2023/08/27 02:06:29;;;;;;;5.93;3.10;;;18.40;81.70;;;;;;5075736;28;20120;-75
2023/08/27 02:08:55;;;;;;;7.88;3.17;;;18.50;82.10;;;;;;5075183;28;20111;-76
2023/08/27 02:11:20;;;;;;;4.47;3.13;;;18.40;81.40;;;;;;5075596;28;20075;-76
2023/08/27 02:13:46;;;;;;;5.55;3.00;;;18.30;81.80;;;;;;5075581;28;20044;-75
2023/08/27 02:16:12;;;;;;;4.90;2.88;;;18.10;82.60;;;;;;5075327;28;20108;-75
2023/08/27 02:18:37;;;;;;;6.13;3.03;;;18.10;83.00;;;;;;5058733;28;20421;-76
2023/08/27 02:21:03;;;;;;;4.25;3.17;;;18.00;83.50;;;;;;5075523;28;20052;-76
2023/08/27 02:23:28;;;;;;;7.00;2.90;;;18.00;83.30;;;;;;5075410;28;20374;-74
2023/08/27 02:25:54;;;;;;;5.32;3.40;;;18.00;83.80;;;;;;5074758;28;20032;-74
2023/08/27 02:28:19;;;;;;;8.38;3.53;;;18.00;83.80;;;;;;5075286;28;20059;-75
2023/08/27 02:30:54;;;;;;;3.75;3.20;;;18.00;83.80;;;;;;5075360;28;20107;-74
2023/08/27 02:33:21;;;;;;;5.53;3.28;;;17.90;84.40;;;;;;5075230;28;20028;-74
2023/08/27 02:35:46;;;;;;;5.47;3.58;;;17.90;84.40;;;;;;5075228;28;20029;-75
2023/08/27 02:38:12;;;;;;;5.70;2.83;;;17.90;84.50;;;;;;5075291;28;20041;-75
2023/08/27 02:40:39;;;;;;;5.45;3.25;;;17.80;84.60;;;;;;5075185;28;20048;-75
2023/08/27 02:43:05;;;;;;;3.53;2.92;;;17.70;84.90;;;;;;5074849;28;20421;-75
2023/08/27 02:45:30;;;;;;;5.18;3.20;;;17.80;85.40;;;;;;5074956;28;20082;-75
2023/08/27 02:47:56;;;;;;;5.13;3.20;;;17.90;85.20;;;;;;5075136;28;20025;-75
2023/08/27 02:50:21;;;;;;;5.38;3.30;;;17.90;84.60;;;;;;5074823;28;20516;-75
2023/08/27 02:52:47;;;;;;;4.32;2.90;;;18.00;84.40;;;;;;5079703;28;20020;-75
2023/08/27 02:55:13;;;;;;;4.45;3.28;;;18.10;84.40;;;;;;5076067;28;20158;-74
2023/08/27 02:57:39;;;;;;;5.35;3.40;;;18.20;84.20;;;;;;5074822;28;20467;-74
2023/08/27 03:00:06;;;;;;;5.45;3.38;;;18.20;84.10;;;;;;5058350;28;20506;-74
2023/08/27 03:02:31;;;;;;;6.85;3.38;;;18.10;83.90;;;;;;5074594;28;20458;-75
2023/08/27 03:05:01;;;;;;;6.40;3.72;;;18.10;83.60;;;;;;5074603;28;20040;-75
2023/08/27 03:07:26;;;;;;;6.05;3.97;;;18.10;83.90;;;;;;5074476;28;20020;-73
2023/08/27 03:09:52;;;;;;;6.85;3.60;;;18.00;83.90;;;;;;5074646;28;20086;-73
2023/08/27 03:12:17;;;;;;;5.30;3.78;;;17.80;84.20;;;;;;5074533;28;20059;-73
2023/08/27 03:14:43;;;;;;;7.75;4.43;;;17.70;84.90;;;;;;5073232;28;20386;-73
2023/08/27 03:17:09;;;;;;;5.93;3.90;;;17.60;85.40;;;;;;5074413;28;20021;-75
2023/08/27 03:19:35;;;;;;;4.80;4.00;;;17.50;86.30;;;;;;5074216;28;20036;-75
2023/08/27 03:22:00;;;;;;;5.75;4.07;;;17.40;86.60;;;;;;5074367;28;20020;-74
2023/08/27 03:24:27;;;;;;;4.85;3.72;;;17.40;86.70;;;;;;5074168;28;20493;-73
2023/08/27 03:26:52;;;;;;;4.65;3.67;;;17.30;87.40;;;;;;5074039;28;20494;-73
2023/08/27 03:29:18;;;;;;;5.35;3.60;;;17.20;87.30;;;;;;5074251;28;20033;-74
2023/08/27 03:31:44;;;;;;;6.03;3.17;;;17.20;87.40;;;;;;5074273;28;20027;-74
2023/08/27 03:34:09;;;;;;;3.45;3.05;;;17.20;87.40;;;;;;5074247;28;20021;-76
2023/08/27 03:36:35;;;;;;;4.88;2.90;;;17.00;87.50;;;;;;5074202;28;20016;-73
2023/08/27 03:39:01;;;;;;;3.88;3.00;;;17.00;87.70;;;;;;5074077;28;20040;-74
2023/08/27 03:41:26;;;;;;;4.03;2.50;;;17.00;87.90;;;;;;5074123;28;20024;-74
2023/08/27 03:43:52;;;;;;;3.50;2.58;;;17.00;88.10;;;;;;5073974;28;20035;-74
2023/08/27 03:46:17;;;;;;;3.88;2.28;;;16.90;87.70;;;;;;5073898;28;20032;-74
2023/08/27 03:48:43;;;;;;;3.55;2.60;;;16.90;87.80;;;;;;5074018;28;20024;-74
2023/08/27 03:51:09;;;;;;;3.10;2.50;;;16.90;88.20;;;;;;5073735;28;20115;-74
2023/08/27 03:53:34;;;;;;;4.93;2.17;;;16.80;88.30;;;;;;5073672;28;20017;-74
2023/08/27 03:56:05;;;;;;;2.45;1.98;;;16.80;88.50;;;;;;5073596;28;20017;-74
2023/08/27 03:58:31;;;;;;;2.42;1.58;;;16.80;89.00;;;;;;5073755;28;20020;-75
2023/08/27 04:00:57;;;;;;;2.13;1.40;;;16.80;88.80;;;;;;5073658;28;20025;-73
2023/08/27 04:03:22;;;;;;;2.35;1.40;;;16.80;87.30;;;;;;5073658;28;20024;-75
2023/08/27 04:05:49;;;;;;;3.15;1.33;;;16.80;86.30;;;;;;5073481;28;20067;-75
2023/08/27 04:08:15;;;;;;;2.63;1.40;;;16.90;87.40;;;;;;5073541;28;20028;-75
2023/08/27 04:10:48;;;;;;;2.75;1.48;;;16.90;85.60;;;;;;5073681;28;20101;-75
2023/08/27 04:13:13;;;;;;;2.38;1.20;;;16.90;86.00;;;;;;5073521;28;20051;-75
2023/08/27 04:15:39;;;;;;;1.55;1.30;;;16.90;86.20;;;;;;5073311;28;20029;-75
2023/08/27 04:18:04;;;;;;;2.03;1.40;;;16.90;86.40;;;;;;5073291;28;20089;-76
2023/08/27 04:20:30;;;;;;;1.40;1.30;;;16.90;86.30;;;;;;5073361;28;20186;-75
2023/08/27 04:22:56;;;;;;;2.25;1.60;;;16.90;86.50;;;;;;5073151;28;20017;-77
2023/08/27 04:25:21;;;;;;;2.97;1.20;;;16.90;86.70;;;;;;5072808;28;20040;-77
2023/08/27 04:27:47;;;;;;;1.55;1.30;;;16.80;86.80;;;;;;5072897;28;20056;-75
2023/08/27 04:30:13;;;;;;;1.67;1.40;;;16.80;86.90;;;;;;5073104;28;20020;-75
2023/08/27 04:32:38;;;;;;;1.48;1.38;;;16.80;87.00;;;;;;5073167;28;20021;-75
2023/08/27 04:35:04;;;;;;;2.35;1.10;;;16.80;87.00;;;;;;5072985;28;20036;-73
2023/08/27 04:37:30;;;;;;;2.13;1.38;;;16.80;87.00;;;;;;5072938;28;20025;-73
2023/08/27 04:39:56;;;;;;;4.10;1.50;;;16.80;87.00;;;;;;5072954;28;20123;-73
2023/08/27 04:42:21;;;;;;;2.22;1.23;;;16.80;86.80;;;;;;5073029;28;20028;-73
2023/08/27 04:44:47;;;;;;;1.58;1.17;;;16.80;87.00;;;;;;5072808;28;20032;-76
2023/08/27 04:47:12;;;;;;;1.50;1.40;;;16.80;86.90;;;;;;5072824;28;20047;-73
2023/08/27 04:49:38;;;;;;;3.65;1.35;;;16.80;87.00;;;;;;5072749;28;20028;-74
2023/08/27 04:52:04;;;;;;;3.50;1.30;;;16.80;86.90;;;;;;5072506;28;20040;-75
2023/08/27 04:54:29;;;;;;;1.77;1.50;;;16.90;87.40;;;;;;5072743;28;20031;-75
2023/08/27 04:56:55;;;;;;;1.92;1.27;;;16.90;87.40;;;;;;5055878;28;20474;-75
2023/08/27 04:59:20;;;;;;;2.15;1.20;;;16.90;86.60;;;;;;5071887;28;20456;-76
2023/08/27 05:01:46;;;;;;;2.00;1.65;;;16.90;86.00;;;;;;5072533;28;20028;-75
2023/08/27 05:04:12;;;;;;;2.15;1.25;;;16.90;86.10;;;;;;5072374;28;20021;-75
2023/08/27 05:06:37;;;;;;;1.67;1.45;;;16.90;85.30;;;;;;5072387;28;20028;-73
2023/08/27 05:09:03;;;;;;;1.50;1.35;;;16.90;85.80;;;;;;5071905;28;20063;-74
2023/08/27 05:11:28;;;;;;;1.50;1.38;;;16.90;85.90;;;;;;5072159;28;20033;-73
2023/08/27 05:13:54;;;;;;;3.22;1.48;;;16.90;86.10;;;;;;5072381;28;20025;-74
2023/08/27 05:16:19;;;;;;;3.35;1.55;;;17.00;86.10;;;;;;5072273;28;20050;-74
2023/08/27 05:18:45;;;;;;;2.40;1.50;;;17.00;85.80;;;;;;5073594;28;20029;-74
2023/08/27 05:21:11;;;;;;;2.00;1.15;;;16.90;85.00;;;;;;5072357;28;20020;-76
2023/08/27 05:23:37;;;;;;;2.92;1.35;;;16.90;85.30;;;;;;5072079;28;20024;-74
2023/08/27 05:26:02;;;;;;;2.88;1.73;;;17.00;85.60;;;;;;5072257;28;20090;-74
2023/08/27 05:28:28;;;;;;;1.40;1.30;;;17.00;85.90;;;;;;5072055;28;20041;-74
2023/08/27 05:30:53;;;;;;;1.92;1.35;;;17.00;85.80;;;;;;5072220;28;20560;-75
2023/08/27 05:33:19;;;;;;;1.60;1.50;;;17.00;85.60;;;;;;5072092;28;20420;-75
2023/08/27 05:35:46;;;;;;;2.80;1.60;;;17.00;85.60;;;;;;5072271;28;20021;-75
2023/08/27 05:38:11;;;;;;;3.38;1.73;;;17.10;85.60;;;;;;5071459;28;20367;-75
2023/08/27 05:40:38;;;;;;;2.70;1.67;;;17.10;85.50;;;;;;5072055;28;20021;-74
2023/08/27 05:43:03;;;;;;;1.90;1.60;;;17.20;85.20;;;;;;5071992;28;20024;-75
2023/08/27 05:45:29;;;;;;;2.67;1.42;;;17.20;85.10;;;;;;5071934;28;20096;-75
2023/08/27 05:47:54;;;;;;;1.40;1.30;;;17.20;85.10;;;;;;5072011;28;20363;-74
2023/08/27 05:50:20;;;;;;;1.55;1.45;;;17.30;84.50;;;;;;5072023;28;20031;-76
2023/08/27 05:52:46;;;;;;;2.22;1.70;;;17.30;83.80;;;;;;5077712;28;20025;-74
2023/08/27 05:55:11;;;;;;;1.88;1.42;;;17.30;82.50;;;;;;5072004;28;20024;-75
2023/08/27 05:57:37;;;;;;;2.67;1.48;;;17.30;81.60;;;;;;5071907;28;20639;-76
2023/08/27 06:00:02;;;;;;;2.90;1.52;;;17.30;81.20;;;;;;5071956;28;20055;-75
2023/08/27 06:02:31;;;;;;;1.13;1.02;;;17.40;81.10;;;;;;5071881;28;20031;-76
2023/08/27 06:04:56;;;;;;;2.13;1.65;;;17.40;81.30;;;;;;5071732;28;20036;-76
2023/08/27 06:07:22;;;;;;;2.92;1.40;;;17.40;80.60;;;;;;5071820;28;20071;-76
2023/08/27 06:09:47;;;;;;;1.77;1.48;;;17.40;80.60;;;;;;5072687;28;20024;-76
2023/08/27 06:12:13;;;;;;;2.38;1.35;;;17.40;81.40;;;;;;5071545;28;20029;-77
2023/08/27 06:14:38;;;;;;;4.07;1.80;;;17.50;82.60;;;;;;5071735;28;20024;-76
2023/08/27 06:17:04;;;;;;;3.05;1.67;;;17.40;83.20;;;;;;5071787;28;20031;-77
2023/08/27 06:19:30;;;;;;;2.13;1.63;;;17.40;82.90;;;;;;5071579;28;20024;-77
2023/08/27 06:21:57;;;;;;;3.00;1.92;;;17.40;81.90;;;;;;5071537;28;20031;-76
2023/08/27 06:24:22;;;;;;;2.28;1.75;;;17.40;81.50;;;;;;5071476;28;20089;-77
2023/08/27 06:26:48;;;;;;;5.97;2.13;;;17.30;80.30;;;;;;5071422;28;20135;-76
2023/08/27 06:29:13;;;;;;;5.85;2.00;;;17.00;79.60;;;;;;5071957;28;20029;-76
2023/08/27 06:31:39;;;;;;;3.33;1.90;;;16.90;78.80;;;;;;5071850;28;20043;-76
2023/08/27 06:34:05;;;;;;;2.95;1.95;;;16.90;78.70;;;;;;5071673;28;20378;-76
2023/08/27 06:36:31;;;;;;;2.58;1.77;;;16.90;78.60;;;;;;5071789;28;20501;-77
2023/08/27 06:38:57;;;;;;;2.80;1.92;;;16.90;77.40;;;;;;5071511;28;20055;-76
2023/08/27 06:41:22;;;;;;;2.92;1.95;;;16.90;78.90;;;;;;5054247;28;20117;-76
2023/08/27 06:43:48;;;;;;;2.33;1.80;;;16.80;78.70;;;;;;5049948;28;20037;-76
2023/08/27 06:46:14;;;;;;;2.65;1.83;;;16.70;78.20;;;;;;5051500;28;20195;-75
2023/08/27 06:48:39;;;;;;;3.88;1.85;;;16.70;79.00;;;;;;5053717;28;20112;-75
2023/08/27 06:51:05;;;;;;;2.85;2.17;;;16.70;78.90;;;;;;5055136;28;20029;-75
2023/08/27 06:53:31;;;;;;;3.03;1.92;;;16.90;78.80;;;;;;5054999;28;20111;-75
2023/08/27 06:55:56;;;;;;;2.60;1.70;;;16.90;78.30;;;;;;5055257;28;20025;-74
2023/08/27 06:58:23;;;;;;;3.50;2.40;;;17.00;78.40;;;;;;5055186;28;20383;-74
2023/08/27 07:00:51;;;;;;;3.25;1.60;;;17.20;79.10;;;;;;5055253;28;20021;-76
2023/08/27 07:03:17;;;;;;;3.60;1.98;;;17.30;78.30;;;;;;5055046;28;20601;-75
2023/08/27 07:05:43;;;;;;;4.60;1.92;;;17.30;77.60;;;;;;5054639;28;20029;-77
2023/08/27 07:08:09;;;;;;;2.88;1.92;;;17.40;77.80;;;;;;5055042;28;20055;-76
2023/08/27 07:10:34;;;;;;;4.93;2.28;;;17.60;78.20;;;;;;5055036;28;20036;-75
2023/08/27 07:13:00;;;;;;;2.80;2.00;;;17.70;78.80;;;;;;5055416;28;20017;-75
2023/08/27 07:15:26;;;;;;;2.22;2.00;;;17.70;78.80;;;;;;5060717;28;20055;-75
2023/08/27 07:17:52;;;;;;;3.88;1.88;;;17.60;79.80;;;;;;5055046;28;20422;-74
2023/08/27 07:20:17;;;;;;;3.33;1.98;;;17.60;79.10;;;;;;5054210;28;20033;-75
2023/08/27 07:22:43;;;;;;;3.92;2.00;;;17.50;78.70;;;;;;5054739;28;20056;-75
2023/08/27 07:25:11;;;;;;;3.47;1.92;;;17.50;78.50;;;;;;5054624;28;20220;-74
2023/08/27 07:27:37;;;;;;;2.50;1.90;;;17.40;79.20;;;;;;5054219;28;20071;-74
2023/08/27 07:30:04;;;;;;;2.78;1.70;;;17.30;79.60;;;;;;5054569;28;20029;-73
2023/08/27 07:32:30;;;;;;;3.70;1.77;;;17.30;80.10;;;;;;5054136;28;20021;-74
2023/08/27 07:34:55;;;;;;;3.42;1.98;;;17.30;80.70;;;;;;5054287;28;20478;-74
2023/08/27 07:37:21;;;;;;;4.22;2.33;;;17.30;80.40;;;;;;5054291;28;20025;-74
2023/08/27 07:39:47;;;;;;;4.65;1.63;;;17.20;79.90;;;;;;5054082;28;20028;-76
2023/08/27 07:42:15;;;;;;;3.08;1.80;;;17.30;80.40;;;;;;5054211;28;20017;-74
2023/08/27 07:44:40;;;;;;;6.90;2.50;;;17.30;79.10;;;;;;5055232;28;20036;-78
2023/08/27 07:47:06;;;;;;;2.42;1.60;;;17.20;80.70;;;;;;5054116;28;20025;-75
2023/08/27 07:49:32;;;;;;;3.28;2.13;;;17.20;78.40;;;;;;5054020;28;20025;-76
2023/08/27 07:51:58;;;;;;;2.05;1.52;;;17.20;78.80;;;;;;5053941;28;20025;-78
2023/08/27 07:54:24;;;;;;;3.80;1.50;;;17.30;78.90;;;;;;5054199;28;20029;-75
2023/08/27 07:56:49;;;;;;;2.90;1.48;;;17.20;79.30;;;;;;5053877;28;20025;-78
2023/08/27 07:59:16;;;;;;;2.13;1.55;;;17.30;78.60;;;;;;5053704;28;20048;-78
2023/08/27 08:01:42;;;;;;;4.53;1.80;;;17.30;78.90;;;;;;5053580;28;20368;-77
2023/08/27 08:04:08;;;;;;;5.00;1.58;;;17.40;78.70;;;;;;5053955;28;20036;-78
2023/08/27 08:06:33;;;;;;;2.85;1.75;;;17.40;79.00;;;;;;5053099;28;20106;-79
2023/08/27 08:08:59;;;;;;;2.30;1.58;;;17.50;78.20;;;;;;5053126;28;20070;-78
2023/08/27 08:11:26;;;;;;;2.38;1.58;;;17.40;78.10;;;;;;5053816;28;20471;-79
2023/08/27 08:13:52;;;;;;;2.67;1.50;;;17.30;78.00;;;;;;5053677;28;20017;-78
2023/08/27 08:16:19;;;;;;;3.92;1.60;;;17.30;77.40;;;;;;5053635;28;20029;-79
2023/08/27 08:18:46;;;;;;;2.45;1.20;;;17.30;78.40;;;;;;5053542;28;20021;-79
2023/08/27 08:21:12;;;;;;;3.30;1.88;;;17.40;77.80;;;;;;5053596;28;20025;-78
2023/08/27 08:23:38;;;;;;;3.42;1.45;;;17.50;77.50;;;;;;5054653;28;20017;-78
2023/08/27 08:26:05;;;;;;;3.70;1.85;;;17.50;77.20;;;;;;5053130;28;20603;-78
2023/08/27 08:28:31;;;;;;;1.75;1.25;;;17.60;75.10;;;;;;5053217;28;20045;-78
2023/08/27 08:30:56;;;;;;;2.58;1.75;;;17.60;76.00;;;;;;5053031;28;20115;-78
2023/08/27 08:33:22;;;;;;;3.00;1.50;;;17.60;76.20;;;;;;5052834;28;20490;-79
2023/08/27 08:35:47;;;;;;;2.83;1.58;;;17.70;76.20;;;;;;5036797;28;20071;-78
2023/08/27 08:38:14;;;;;;;2.70;1.20;;;17.70;74.40;;;;;;5056602;28;20070;-78
2023/08/27 08:40:44;;;;;;;2.85;1.33;;;17.70;75.50;;;;;;5054074;28;20029;-80
2023/08/27 08:43:58;;;;;;;2.05;1.27;;;17.60;76.10;;;;;;5052592;28;20138;-78
2023/08/27 08:46:26;;;;;;;2.22;1.45;;;17.60;77.20;;;;;;5035819;28;20076;-79
2023/08/27 08:48:54;;;;;;;3.42;1.60;;;17.60;75.20;;;;;;5053088;28;20120;-78
2023/08/27 08:51:24;;;;;;;3.33;1.52;;;17.50;74.90;;;;;;5052934;28;20375;-77
2023/08/27 08:53:51;;;;;;;1.85;1.40;;;17.50;76.70;;;;;;5052957;28;20029;-76
2023/08/27 08:56:37;;;;;;;3.08;1.50;;;17.60;76.30;;;;;;5052803;28;20021;-75
2023/08/27 08:59:03;;;;;;;;;;;17.60;75.30;;;;;;5053213;28;20029;-76
2023/08/27 09:01:30;;;;;;;3.78;1.77;;;17.70;75.10;;;;;;5052141;28;19912;-75
2023/08/27 09:03:56;;;;;;;4.25;1.77;;;17.60;75.00;;;;;;5052719;28;20566;-75
2023/08/27 09:06:23;;;;;;;3.55;1.60;;;17.60;75.40;;;;;;5052410;28;20577;-76
2023/08/27 09:08:50;;;;;;;3.28;1.70;;;17.70;75.90;;;;;;5052563;28;20391;-76
2023/08/27 09:11:19;;;;;;;1.55;1.45;;;17.80;74.80;;;;;;5051518;28;20082;-76
2023/08/27 09:13:50;;;;;;;2.08;1.50;;;17.90;74.80;;;;;;5063604;28;20059;-76
2023/08/27 09:16:16;;;;;;;1.30;1.20;;;18.00;74.30;;;;;;5072104;28;20024;-76
2023/08/27 09:18:41;;;;;;;3.72;1.50;;;18.20;73.50;;;;;;5071999;28;20021;-76
2023/08/27 09:21:07;;;;;;;3.35;1.65;;;18.30;73.40;;;;;;5072068;28;20547;-76
2023/08/27 09:23:37;;;;;;;4.90;1.42;;;18.40;73.30;;;;;;5072081;28;20056;-76
2023/08/27 09:26:04;;;;;;;2.40;1.67;;;18.60;73.10;;;;;;5056086;28;20390;-76
2023/08/27 09:28:33;;;;;;;2.10;1.40;;;18.70;73.40;;;;;;5072020;28;20101;-76
2023/08/27 09:31:00;;;;;;;4.30;1.98;;;18.90;73.00;;;;;;5072016;28;20021;-76
2023/08/27 09:33:40;;;;;;;2.33;1.45;;;19.10;72.70;;;;;;5072303;28;20060;-76
2023/08/27 09:36:07;;;;;;;1.95;1.38;;;19.10;72.30;;;;;;5072105;28;20028;-76
2023/08/27 09:38:34;;;;;;;5.97;1.98;;;19.10;72.20;;;;;;5071450;28;20029;-76
2023/08/27 09:41:15;;;;;;;3.30;1.70;;;19.20;71.70;;;;;;5072175;28;20078;-76
2023/08/27 09:43:46;;;;;;;2.63;1.70;;;19.30;72.10;;;;;;5068852;28;20478;-75
2023/08/27 09:46:16;;;;;;;2.08;1.42;;;19.20;71.70;;;;;;5072006;28;20090;-75
2023/08/27 09:48:42;;;;;;;2.25;1.40;;;19.30;71.00;;;;;;5072029;28;20020;-75
2023/08/27 09:51:09;;;;;;;1.75;1.08;;;19.20;71.70;;;;;;5071796;28;20378;-75
2023/08/27 09:53:35;;;;;;;3.42;1.50;;;19.20;70.50;;;;;;5071930;28;20029;-75
2023/08/27 09:56:04;;;;;;;1.95;1.50;;;19.20;70.10;;;;;;5071717;28;20035;-74
2023/08/27 09:58:29;;;;;;;2.63;1.85;;;19.30;70.50;;;;;;5072166;28;20025;-75
2023/08/27 10:00:59;;;;;;;1.63;1.30;;;19.20;70.30;;;;;;5077409;28;20085;-75
2023/08/27 10:03:26;;;;;;;2.60;1.50;;;19.30;70.40;;;;;;5070147;28;20052;-75
2023/08/27 10:05:51;;;;;;;1.50;1.40;;;19.30;70.00;;;;;;5051858;28;20036;-76
2023/08/27 10:08:17;;;;;;;1.50;1.33;;;19.40;69.40;;;;;;5051819;28;20025;-75
2023/08/27 10:10:43;;;;;;;2.42;1.35;;;19.40;69.50;;;;;;5051800;28;20025;-75
2023/08/27 10:13:11;;;;;;;3.13;1.48;;;19.40;69.80;;;;;;5051689;28;20032;-75
2023/08/27 10:15:36;;;;;;;2.13;1.60;;;19.40;70.20;;;;;;5051622;28;20112;-75
2023/08/27 10:18:04;;;;;;;3.78;1.60;;;19.40;70.40;;;;;;5051728;28;20094;-75
2023/08/27 10:20:31;;;;;;;4.25;1.95;;;19.50;70.80;;;;;;5051983;28;20025;-74
2023/08/27 10:22:57;;;;;;;2.95;1.63;;;19.40;70.60;;;;;;5052791;28;20025;-75
2023/08/27 10:25:25;;;;;;;2.80;1.90;;;19.30;70.70;;;;;;5056458;28;20121;-75
2023/08/27 10:27:51;;;;;;;4.95;1.75;;;19.20;71.30;;;;;;5054822;28;20056;-75
2023/08/27 10:30:18;;;;;;;4.13;2.20;;;19.10;72.40;;;;;;5055479;28;20029;-75
2023/08/27 10:32:45;;;;;;;3.67;1.88;;;18.90;73.20;;;;;;5055023;28;20017;-75
2023/08/27 10:35:11;;;;;;;3.65;1.70;;;18.90;73.50;;;;;;5055428;28;20021;-76
2023/08/27 10:37:39;;;;;;;1.80;1.70;;;18.80;73.20;;;;;;5055351;28;20023;-75
2023/08/27 10:40:09;;;;;;;3.95;1.58;;;18.80;71.80;;;;;;5055292;28;20045;-76
2023/08/27 10:42:38;;;;;;;3.45;1.60;;;18.70;72.70;;;;;;5053926;28;20024;-76
2023/08/27 10:45:20;;;;;;;3.38;1.90;;;18.70;72.70;;;;;;5054598;28;20045;-78
2023/08/27 10:48:04;;;;;;;4.20;2.08;;;18.60;73.50;;;;;;5055177;28;20021;-79
2023/08/27 10:50:58;;;;;;;2.63;2.03;;;18.60;72.40;;;;;;5054578;28;20021;-77
2023/08/27 10:53:24;;;;;;;4.63;2.10;;;18.60;73.10;;;;;;5054753;28;20116;-75
2023/08/27 10:55:51;;;;;;;3.35;1.95;;;18.60;73.90;;;;;;5054987;28;20111;-75
2023/08/27 10:58:25;;;;;;;3.13;2.00;;;18.60;73.40;;;;;;5054837;28;20063;-76
2023/08/27 11:01:11;;;;;;;4.15;1.85;;;18.50;74.60;;;;;;5055083;28;20053;-75
2023/08/27 11:03:58;;;;;;;;;;;18.50;74.70;;;;;;5055312;28;20060;-76
2023/08/27 11:06:48;;;;;;;6.35;2.33;;;18.60;73.90;;;;;;5054783;28;19924;-76
2023/08/27 11:09:24;;;;;;;3.20;1.90;;;18.80;73.90;;;;;;5054753;28;20497;-75
2023/08/27 11:11:59;;;;;;;1.88;1.45;;;18.80;73.50;;;;;;5054650;28;20029;-76
2023/08/27 11:14:25;;;;;;;2.08;1.40;;;18.90;68.90;;;;;;5055178;28;20040;-75
2023/08/27 11:17:05;;;;;;;1.63;1.17;;;18.80;69.20;;;;;;5055233;28;20493;-76
2023/08/27 11:19:36;;;;;;;3.53;1.60;;;18.80;70.00;;;;;;5054503;28;20036;-76
2023/08/27 11:22:12;;;;;;;1.05;1.02;;;18.90;69.60;;;;;;5054113;28;20029;-76
2023/08/27 11:24:43;;;;;;;3.05;1.63;;;19.00;69.10;;;;;;5054315;28;20033;-76
2023/08/27 11:27:10;;;;;;;2.53;1.90;;;19.20;69.70;;;;;;5054462;28;20049;-76
2023/08/27 11:29:44;;;;;;;1.40;1.27;;;19.20;69.80;;;;;;5038244;28;20040;-76
2023/08/27 11:32:13;;;;;;;2.75;1.48;;;19.40;69.70;;;;;;5056633;28;20493;-76
2023/08/27 11:34:41;;;;;;;2.30;1.63;;;19.60;69.00;;;;;;5037556;28;20032;-76
2023/08/27 11:37:07;;;;;;;2.65;1.50;;;19.70;68.10;;;;;;5054824;28;20074;-76
2023/08/27 11:39:35;;;;;;;1.85;1.23;;;19.80;68.20;;;;;;5055149;28;20374;-76
2023/08/27 11:42:01;;;;;;;2.10;1.30;;;19.90;67.60;;;;;;5055197;28;20018;-75
2023/08/27 11:44:27;;;;;;;1.33;1.23;;;20.00;67.40;;;;;;5053631;28;20128;-77
2023/08/27 11:47:01;;;;;;;3.45;1.50;;;20.10;67.80;;;;;;5054193;28;20461;-76
2023/08/27 11:49:28;;;;;;;2.03;1.40;;;20.20;67.70;;;;;;5054391;28;20021;-76
2023/08/27 11:51:56;;;;;;;2.80;1.45;;;20.20;67.90;;;;;;5054095;28;20757;-76
2023/08/27 11:54:30;;;;;;;2.75;1.65;;;20.20;67.80;;;;;;5054743;28;20044;-76
2023/08/27 11:56:57;;;;;;;2.35;1.80;;;20.30;67.70;;;;;;5054342;28;20067;-76
2023/08/27 11:59:30;;;;;;;4.97;1.55;;;20.30;67.80;;;;;;5053620;28;20017;-77
2023/08/27 12:01:57;;;;;;;3.08;1.70;;;20.40;67.60;;;;;;5053765;28;20025;-77
2023/08/27 12:04:26;;;;;;;2.28;1.27;;;20.50;66.90;;;;;;5053615;28;20029;-77
2023/08/27 12:06:56;;;;;;;2.65;1.38;;;20.40;66.00;;;;;;5053799;28;20048;-78
2023/08/27 12:09:23;;;;;;;2.45;1.45;;;20.30;66.10;;;;;;5053409;28;20044;-76
2023/08/27 12:11:49;;;;;;;1.38;1.25;;;20.30;66.80;;;;;;5052849;28;20017;-77
2023/08/27 12:14:23;;;;;;;2.22;1.45;;;20.20;66.90;;;;;;5054045;28;20088;-77
2023/08/27 12:16:49;;;;;;;1.55;1.35;;;20.10;66.60;;;;;;5050604;28;20017;-76
2023/08/27 12:19:19;;;;;;;2.10;1.33;;;20.00;67.20;;;;;;5052648;28;20032;-76
2023/08/27 12:21:56;;;;;;;1.80;1.40;;;19.90;67.30;;;;;;5052672;28;20421;-77
2023/08/27 12:24:34;;;;;;;1.98;1.30;;;19.90;68.20;;;;;;5052422;28;20017;-75
2023/08/27 12:27:07;;;;;;;1.95;1.45;;;19.90;67.90;;;;;;5036665;28;20473;-75
2023/08/27 12:29:39;;;;;;;3.00;1.50;;;19.90;67.70;;;;;;5052600;28;20024;-77
2023/08/27 12:32:12;;;;;;;2.53;1.55;;;19.90;67.50;;;;;;5050556;28;20029;-75
2023/08/27 12:34:39;;;;;;;4.22;1.95;;;19.90;66.70;;;;;;5053200;28;20057;-76
2023/08/27 12:37:07;;;;;;;1.75;1.60;;;19.80;67.60;;;;;;5052778;28;20021;-77
2023/08/27 12:39:33;;;;;;;2.83;1.77;;;19.70;68.20;;;;;;5053227;28;20033;-76
2023/08/27 12:42:00;;;;;;;4.43;1.90;;;19.70;67.60;;;;;;5053115;28;20020;-77
2023/08/27 12:44:25;;;;;;;3.22;1.30;;;19.70;68.20;;;;;;5052528;28;20025;-77
2023/08/27 12:46:54;;;;;;;2.10;1.38;;;19.60;68.30;;;;;;5053045;28;20092;-77
2023/08/27 12:49:23;;;;;;;3.72;1.88;;;19.50;68.80;;;;;;5054486;28;20032;-76